createdAt,value
2023-05-14T00:01:24.951Z,3.60
2023-05-14T00:06:26.658Z,3.57
2023-05-14T00:11:28.364Z,3.60
2023-05-14T00:16:30.118Z,3.47
2023-05-14T00:21:32.279Z,3.37
2023-05-14T00:26:33.972Z,3.33
2023-05-14T00:31:35.726Z,3.80
2023-05-14T00:36:38.248Z,2.93
2023-05-14T00:41:40.034Z,3.40
2023-05-14T00:46:43.760Z,3.23
2023-05-14T00:51:47.043Z,3.10
2023-05-14T00:56:49.305Z,4.20
2023-05-14T01:01:51.072Z,3.60
2023-05-14T01:07:17.573Z,3.70
2023-05-14T01:12:26.038Z,3.97
2023-05-14T01:17:30.325Z,3.10
2023-05-14T01:22:32.023Z,3.40
2023-05-14T01:28:12.009Z,3.60
2023-05-14T01:33:14.658Z,3.50
2023-05-14T01:38:18.679Z,2.90
2023-05-14T01:43:20.882Z,3.43
2023-05-14T01:48:22.682Z,3.50
2023-05-14T01:53:26.148Z,3.37
2023-05-14T01:58:28.463Z,3.90
2023-05-14T02:03:30.056Z,4.07
2023-05-14T02:08:32.397Z,3.23
2023-05-14T02:13:34.212Z,3.57
2023-05-14T02:18:36.116Z,3.60
2023-05-14T02:23:41.976Z,4.00
2023-05-14T02:28:44.392Z,3.47
2023-05-14T02:33:49.691Z,4.30
2023-05-14T02:39:16.043Z,3.87
2023-05-14T02:44:20.641Z,3.70
2023-05-14T02:49:22.456Z,3.47
2023-05-14T02:54:24.174Z,4.03
2023-05-14T02:59:28.383Z,3.60
2023-05-14T03:04:30.404Z,3.67
2023-05-14T03:09:32.019Z,3.00
2023-05-14T03:14:33.618Z,3.17
2023-05-14T03:19:35.413Z,3.87
2023-05-14T03:24:40.052Z,3.40
2023-05-14T03:29:42.305Z,3.23
2023-05-14T03:34:44.713Z,3.23
2023-05-14T03:39:46.867Z,3.50
2023-05-14T03:44:48.418Z,3.30
2023-05-14T03:49:50.700Z,3.13
2023-05-14T03:54:52.387Z,3.40
2023-05-14T03:59:54.035Z,3.40
2023-05-14T04:04:55.853Z,3.70
2023-05-14T04:09:57.948Z,3.47
2023-05-14T04:14:59.838Z,3.50
2023-05-14T04:20:02.399Z,3.43
2023-05-14T04:25:04.138Z,3.73
2023-05-14T04:30:06.633Z,3.43
2023-05-14T04:35:10.175Z,3.70
2023-05-14T04:40:12.654Z,3.70
2023-05-14T04:45:14.572Z,3.50
2023-05-14T04:50:16.538Z,3.47
2023-05-14T04:55:18.170Z,3.20
2023-05-14T05:00:22.270Z,3.87
2023-05-14T05:05:24.252Z,3.80
2023-05-14T05:10:26.431Z,3.60
2023-05-14T05:15:28.243Z,3.90
2023-05-14T05:20:30.021Z,4.00
2023-05-14T05:25:31.947Z,4.30
2023-05-14T05:30:33.745Z,3.80
2023-05-14T05:35:35.511Z,3.80
2023-05-14T05:40:37.244Z,4.07
2023-05-14T05:45:38.752Z,3.43
2023-05-14T05:50:40.656Z,3.10
2023-05-14T05:55:42.637Z,3.20
2023-05-14T06:00:44.613Z,3.37
2023-05-14T06:05:46.782Z,3.00
2023-05-14T06:10:48.524Z,2.70
2023-05-14T06:15:50.145Z,3.10
2023-05-14T06:20:51.741Z,3.43
2023-05-14T06:25:53.360Z,3.10
2023-05-14T06:30:54.987Z,3.20
2023-05-14T06:36:01.048Z,2.83
2023-05-14T06:41:03.266Z,3.03
2023-05-14T06:46:04.898Z,3.07
2023-05-14T06:51:09.313Z,2.87
2023-05-14T06:56:10.980Z,3.00
2023-05-14T07:01:12.728Z,3.67
2023-05-14T07:06:14.292Z,3.67
2023-05-14T07:11:16.234Z,3.37
2023-05-14T07:16:17.885Z,3.20
2023-05-14T07:21:19.589Z,3.57
2023-05-14T07:26:21.467Z,3.23
2023-05-14T07:31:23.468Z,3.28
2023-05-14T07:36:25.902Z,3.25
2023-05-14T07:41:27.453Z,2.83
2023-05-14T07:46:29.049Z,3.08
2023-05-14T07:51:31.669Z,3.30
2023-05-14T07:56:33.382Z,3.03
2023-05-14T08:01:35.961Z,3.20
2023-05-14T08:06:38.732Z,3.20
2023-05-14T08:11:40.600Z,2.88
2023-05-14T08:16:42.844Z,2.63
2023-05-14T08:21:44.577Z,2.60
2023-05-14T08:26:46.598Z,2.83
2023-05-14T08:31:51.353Z,2.65
2023-05-14T08:36:52.971Z,2.90
2023-05-14T08:41:55.835Z,2.17
2023-05-14T08:46:58.041Z,2.40
2023-05-14T08:52:00.310Z,2.33
2023-05-14T08:57:03.813Z,2.20
2023-05-14T09:02:06.595Z,2.42
2023-05-14T09:07:09.064Z,2.10
2023-05-14T09:12:11.099Z,2.60
2023-05-14T09:17:12.699Z,2.20
2023-05-14T09:22:16.313Z,2.03
2023-05-14T09:27:21.394Z,1.95
2023-05-14T09:32:23.020Z,1.73
2023-05-14T09:37:26.076Z,2.30
2023-05-14T09:42:28.255Z,1.98
2023-05-14T09:47:30.022Z,1.90
2023-05-14T09:52:31.862Z,2.00
2023-05-14T09:57:33.674Z,2.10
2023-05-14T10:02:37.864Z,2.10
2023-05-14T10:07:47.093Z,1.90
2023-05-14T10:12:53.713Z,1.92
2023-05-14T10:18:00.757Z,1.75
2023-05-14T10:23:03.312Z,1.65
2023-05-14T10:28:05.890Z,2.00
2023-05-14T10:33:09.610Z,1.90
2023-05-14T10:38:11.777Z,1.90
2023-05-14T10:43:14.947Z,1.70
2023-05-14T10:48:17.127Z,1.90
2023-05-14T10:53:19.059Z,2.10
2023-05-14T10:58:20.925Z,1.75
2023-05-14T11:03:22.584Z,1.90
2023-05-14T11:08:28.021Z,1.98
2023-05-14T11:13:30.957Z,1.80
2023-05-14T11:18:42.546Z,2.10
2023-05-14T11:23:46.773Z,2.00
2023-05-14T11:28:48.354Z,2.30
2023-05-14T11:33:52.316Z,1.92
2023-05-14T11:38:53.893Z,1.73
2023-05-14T11:43:55.690Z,2.00
2023-05-14T11:48:57.276Z,2.00
2023-05-14T11:53:59.263Z,1.87
2023-05-14T11:59:01.658Z,2.20
2023-05-14T12:04:04.663Z,2.00
2023-05-14T12:09:06.647Z,2.10
2023-05-14T12:14:15.223Z,1.70
2023-05-14T12:19:21.283Z,1.97
2023-05-14T12:24:25.688Z,1.70
2023-05-14T12:29:27.248Z,2.30
2023-05-14T12:34:28.821Z,2.23
2023-05-14T12:39:32.968Z,1.92
2023-05-14T12:44:34.583Z,2.25
2023-05-14T12:49:36.280Z,2.00
2023-05-14T12:54:41.695Z,2.78
2023-05-14T12:59:44.531Z,2.03
2023-05-14T13:04:46.431Z,2.38
2023-05-14T13:09:47.950Z,2.40
2023-05-14T13:14:49.689Z,2.40
2023-05-14T13:19:51.218Z,2.42
2023-05-14T13:24:52.842Z,2.10
2023-05-14T13:29:54.369Z,1.98
2023-05-14T13:34:55.940Z,2.25
2023-05-14T13:39:57.497Z,1.77
2023-05-14T13:44:59.343Z,2.20
2023-05-14T13:50:01.041Z,1.90
2023-05-14T13:55:04.212Z,1.80
2023-05-14T14:00:06.706Z,2.10
2023-05-14T14:05:08.940Z,1.73
2023-05-14T14:10:10.798Z,1.85
2023-05-14T14:15:12.638Z,1.95
2023-05-14T14:20:14.275Z,1.85
2023-05-14T14:25:15.890Z,1.92
2023-05-14T14:30:17.450Z,1.67
2023-05-14T14:35:19.854Z,1.70
2023-05-14T14:40:23.628Z,1.85
2023-05-14T14:45:25.571Z,1.83
2023-05-14T14:50:27.321Z,1.60
2023-05-14T14:55:29.014Z,1.80
2023-05-14T15:00:31.211Z,1.65
2023-05-14T15:05:32.904Z,1.52
2023-05-14T15:10:38.045Z,1.65
2023-05-14T15:15:39.999Z,1.38
2023-05-14T15:20:42.225Z,1.50
2023-05-14T15:25:43.918Z,1.38
2023-05-14T15:30:47.590Z,1.40
2023-05-14T15:35:49.226Z,1.40
2023-05-14T15:40:51.050Z,1.33
2023-05-14T15:45:52.700Z,1.50
2023-05-14T15:50:54.325Z,1.23
2023-05-14T15:55:56.651Z,1.17
2023-05-14T16:00:58.603Z,1.20
2023-05-14T16:06:00.331Z,1.10
2023-05-14T16:11:01.929Z,1.53
2023-05-14T16:16:03.873Z,0.97
2023-05-14T16:21:06.303Z,1.20
2023-05-14T16:26:07.930Z,1.20
2023-05-14T16:31:09.503Z,0.90
2023-05-14T16:36:11.183Z,0.83
2023-05-14T16:41:12.722Z,0.80
2023-05-14T16:46:14.495Z,0.98
2023-05-14T16:51:16.457Z,0.80
2023-05-14T16:56:18.091Z,1.00
2023-05-14T17:01:19.847Z,0.90
2023-05-14T17:06:21.461Z,0.93
2023-05-14T17:11:23.576Z,0.90
2023-05-14T17:16:26.073Z,0.93
2023-05-14T17:21:27.702Z,0.80
2023-05-14T17:26:30.153Z,0.70
2023-05-14T17:31:31.857Z,0.90
2023-05-14T17:36:33.642Z,0.90
2023-05-14T17:41:35.310Z,0.90
2023-05-14T17:46:37.088Z,1.03
2023-05-14T17:51:38.798Z,0.60
2023-05-14T17:56:42.680Z,0.60
2023-05-14T18:01:44.356Z,0.77
2023-05-14T18:06:46.114Z,0.83
2023-05-14T18:11:47.839Z,0.90
2023-05-14T18:16:49.580Z,0.75
2023-05-14T18:21:55.339Z,0.90
2023-05-14T18:26:57.233Z,0.80
2023-05-14T18:31:58.829Z,0.73
2023-05-14T18:37:00.506Z,0.90
2023-05-14T18:42:02.086Z,0.80
2023-05-14T18:47:04.026Z,0.80
2023-05-14T18:52:06.729Z,1.00
2023-05-14T18:57:08.560Z,1.17
2023-05-14T19:02:10.161Z,0.97
2023-05-14T19:07:12.154Z,1.10
2023-05-14T19:12:13.799Z,1.00
2023-05-14T19:17:15.842Z,1.10
2023-05-14T19:22:19.481Z,0.90
2023-05-14T19:27:21.145Z,0.90
2023-05-14T19:32:22.749Z,0.97
2023-05-14T19:37:24.457Z,1.20
2023-05-14T19:42:26.086Z,0.80
2023-05-14T19:47:28.768Z,1.00
2023-05-14T19:52:30.362Z,0.90
2023-05-14T19:57:32.069Z,0.93
2023-05-14T20:02:34.151Z,1.00
2023-05-14T20:07:37.775Z,1.00
2023-05-14T20:12:42.799Z,1.37
2023-05-14T20:17:44.445Z,0.97
2023-05-14T20:22:46.058Z,1.10
2023-05-14T20:27:47.851Z,0.90
2023-05-14T20:32:49.512Z,1.10
2023-05-14T20:37:51.224Z,1.03
2023-05-14T20:42:52.808Z,1.30
2023-05-14T20:47:54.562Z,0.90
2023-05-14T20:52:56.198Z,1.10
2023-05-14T20:57:57.840Z,1.30
2023-05-14T21:03:00.330Z,1.00
2023-05-14T21:08:02.216Z,1.10
2023-05-14T21:13:03.961Z,0.90
2023-05-14T21:18:05.762Z,1.00
2023-05-14T21:23:07.483Z,1.20
2023-05-14T21:28:09.130Z,1.00
2023-05-14T21:33:12.840Z,1.40
2023-05-14T21:38:15.088Z,1.10
2023-05-14T21:43:16.866Z,1.30
2023-05-14T21:48:19.096Z,1.00
2023-05-14T21:53:21.045Z,1.37
2023-05-14T21:58:22.814Z,1.23
2023-05-14T22:03:24.670Z,1.20
2023-05-14T22:08:27.289Z,1.70
2023-05-14T22:13:28.975Z,1.17
2023-05-14T22:18:31.283Z,1.30
2023-05-14T22:23:32.978Z,1.20
2023-05-14T22:28:34.723Z,1.23
2023-05-14T22:33:36.479Z,1.20
2023-05-14T22:38:39.066Z,1.40
2023-05-14T22:43:40.823Z,1.43
2023-05-14T22:48:42.578Z,1.50
2023-05-14T22:53:45.394Z,1.40
2023-05-14T22:58:47.745Z,1.30
2023-05-14T23:03:49.334Z,1.30
2023-05-14T23:08:51.019Z,1.60
2023-05-14T23:13:53.649Z,1.67
2023-05-14T23:18:57.438Z,1.63
2023-05-14T23:23:59.271Z,1.60
2023-05-14T23:29:00.904Z,1.30
2023-05-14T23:34:02.958Z,1.43
2023-05-14T23:39:05.474Z,1.40
2023-05-14T23:44:07.308Z,1.50
2023-05-14T23:49:09.267Z,1.63
2023-05-14T23:54:11.093Z,1.53
2023-05-14T23:59:12.890Z,1.40
